Time;durP1;ratioP1;P1;durP2;ratioP2;P2;SDS_P1;SDS_P2;PMS_P1;PMS_P2;Temp;Humidity;BMP_temperature;BMP_pressure;BME280_temperature;BME280_humidity;BME280_pressure;Samples;Min_cycle;Max_cycle;Signal;HPM_P1;HPM_P2
2022/01/29 00:00:56;;;;;;;8.68;4.00;;;4.50;99.90;;;;;;5015251;28;20239;-92
2022/01/29 00:03:23;;;;;;;12.23;4.20;;;4.50;99.90;;;;;;5020236;28;20271;-91
2022/01/29 00:05:49;;;;;;;9.25;4.60;;;4.50;99.90;;;;;;5014609;28;20258;-91
2022/01/29 00:08:16;;;;;;;16.52;6.00;;;4.50;99.90;;;;;;5031455;28;20243;-90
2022/01/29 00:10:44;;;;;;;13.23;5.93;;;4.60;99.90;;;;;;5025166;28;20279;-92
2022/01/29 00:13:09;;;;;;;12.68;5.82;;;4.60;99.90;;;;;;4998221;28;20168;-90
2022/01/29 00:15:35;;;;;;;18.23;7.60;;;4.60;99.90;;;;;;5013258;28;20211;-91
2022/01/29 00:18:02;;;;;;;11.77;5.97;;;4.60;99.90;;;;;;5012952;28;20176;-91
2022/01/29 00:20:28;;;;;;;6.65;3.55;;;4.60;99.90;;;;;;5012308;28;20981;-91
2022/01/29 00:22:53;;;;;;;5.67;3.20;;;4.60;99.90;;;;;;5013327;28;20190;-91
2022/01/29 00:25:19;;;;;;;9.60;3.63;;;4.60;99.90;;;;;;5012984;28;20612;-91
2022/01/29 00:27:46;;;;;;;9.07;3.50;;;4.60;99.90;;;;;;5013165;28;20231;-90
2022/01/29 00:30:17;;;;;;;7.10;4.38;;;4.60;99.90;;;;;;4997810;28;20212;-92
2022/01/29 00:32:43;;;;;;;12.05;5.75;;;4.60;99.90;;;;;;5012907;28;20176;-91
2022/01/29 00:35:09;;;;;;;6.55;4.15;;;4.60;99.90;;;;;;4996786;28;20242;-91
2022/01/29 00:37:35;;;;;;;7.50;4.65;;;4.60;99.90;;;;;;5012814;28;20176;-91
2022/01/29 00:40:02;;;;;;;9.70;4.80;;;4.60;99.90;;;;;;5017364;28;20211;-91
2022/01/29 00:42:28;;;;;;;9.73;4.75;;;4.60;99.90;;;;;;5001499;28;20222;-91
2022/01/29 00:44:54;;;;;;;11.10;5.20;;;4.60;99.90;;;;;;4997602;28;20649;-92
2022/01/29 00:47:20;;;;;;;9.53;5.60;;;4.60;99.90;;;;;;5012875;28;20180;-90
2022/01/29 00:49:46;;;;;;;17.65;5.63;;;4.60;99.90;;;;;;5012817;28;20492;-91
2022/01/29 00:52:13;;;;;;;9.25;5.43;;;4.60;99.90;;;;;;5023598;28;20176;-91
2022/01/29 00:54:39;;;;;;;9.07;4.90;;;4.50;99.90;;;;;;5019088;28;20208;-91
2022/01/29 00:57:05;;;;;;;10.20;4.33;;;4.50;99.90;;;;;;4997157;28;20193;-91
2022/01/29 00:59:33;;;;;;;5.43;3.30;;;4.50;99.90;;;;;;5012202;28;20939;-91
2022/01/29 01:02:00;;;;;;;6.88;4.25;;;4.50;99.90;;;;;;5012241;28;20176;-90
2022/01/29 01:04:25;;;;;;;14.40;5.25;;;4.50;99.90;;;;;;5012378;28;20203;-91
2022/01/29 01:06:51;;;;;;;5.67;3.63;;;4.50;99.90;;;;;;5012340;28;20180;-91
2022/01/29 01:09:17;;;;;;;8.90;4.07;;;4.50;99.90;;;;;;5011664;28;20477;-92
2022/01/29 01:11:43;;;;;;;9.40;4.23;;;4.50;99.90;;;;;;5012128;28;20514;-91
2022/01/29 01:14:09;;;;;;;12.57;3.80;;;4.50;99.90;;;;;;5012227;28;20782;-91
2022/01/29 01:16:34;;;;;;;8.23;3.90;;;4.40;99.90;;;;;;5011952;28;20200;-91
2022/01/29 01:19:01;;;;;;;7.80;4.57;;;4.40;99.90;;;;;;5012289;28;20407;-92
2022/01/29 01:21:27;;;;;;;8.13;3.70;;;4.40;99.90;;;;;;5013466;28;20220;-91
2022/01/29 01:23:53;;;;;;;5.70;3.80;;;4.40;99.90;;;;;;5015753;28;20180;-91
2022/01/29 01:26:19;;;;;;;7.07;3.78;;;4.40;99.90;;;;;;5012665;28;20404;-91
2022/01/29 01:28:45;;;;;;;7.32;4.13;;;4.40;99.90;;;;;;5015031;28;20314;-92
2022/01/29 01:31:11;;;;;;;8.93;4.07;;;4.30;99.90;;;;;;5011073;28;20200;-91
2022/01/29 01:33:37;;;;;;;6.00;3.73;;;4.30;99.90;;;;;;4996370;28;20176;-91
2022/01/29 01:36:06;;;;;;;7.25;3.25;;;4.30;99.90;;;;;;5011835;28;20948;-92
2022/01/29 01:41:05;;;;;;;8.02;3.45;;;4.20;99.90;;;;;;5012261;28;20267;-91
2022/01/29 01:43:31;;;;;;;6.35;3.53;;;4.20;99.90;;;;;;5013958;28;20191;-91
2022/01/29 01:45:57;;;;;;;7.50;3.47;;;4.20;99.90;;;;;;5011578;28;20649;-91
2022/01/29 01:48:23;;;;;;;6.40;2.90;;;4.20;99.90;;;;;;5011417;28;20469;-91
2022/01/29 01:50:49;;;;;;;3.90;2.80;;;4.20;99.90;;;;;;5011265;28;20704;-90
2022/01/29 01:53:15;;;;;;;7.05;3.20;;;4.20;99.90;;;;;;5011145;28;20815;-91
2022/01/29 01:55:41;;;;;;;5.50;2.17;;;4.10;99.90;;;;;;5011428;28;20342;-91
2022/01/29 01:58:07;;;;;;;3.37;2.00;;;4.10;99.90;;;;;;5011289;28;20653;-92
2022/01/29 02:00:33;;;;;;;4.73;2.50;;;4.10;99.90;;;;;;4994722;28;20955;-90
2022/01/29 02:03:01;;;;;;;5.65;2.25;;;4.10;99.90;;;;;;5011126;28;20418;-90
2022/01/29 02:05:27;;;;;;;5.03;1.80;;;4.10;99.90;;;;;;5011287;28;20200;-92
2022/01/29 02:07:53;;;;;;;3.83;2.30;;;4.10;99.90;;;;;;5012505;28;20599;-91
2022/01/29 02:10:19;;;;;;;2.53;1.58;;;4.00;99.90;;;;;;4998984;28;20661;-90
2022/01/29 02:12:49;;;;;;;5.00;2.47;;;4.00;99.90;;;;;;5013919;28;20610;-91
2022/01/29 02:15:17;;;;;;;2.70;1.60;;;4.00;99.90;;;;;;5016657;28;20204;-91
2022/01/29 02:17:45;;;;;;;2.63;1.70;;;4.00;99.90;;;;;;5014005;28;20591;-92
2022/01/29 02:20:11;;;;;;;3.22;1.45;;;3.90;99.90;;;;;;5011289;28;20242;-91
2022/01/29 02:22:39;;;;;;;3.67;1.33;;;3.90;99.90;;;;;;4996148;28;20179;-90
2022/01/29 02:25:05;;;;;;;2.65;1.60;;;3.90;99.90;;;;;;5011256;28;20208;-91
2022/01/29 02:27:31;;;;;;;5.87;1.77;;;3.90;99.90;;;;;;5020669;28;20179;-90
2022/01/29 02:29:58;;;;;;;1.43;1.20;;;3.90;99.90;;;;;;5030643;28;20488;-91
2022/01/29 02:32:24;;;;;;;2.97;1.50;;;3.80;99.90;;;;;;5028294;28;20552;-90
2022/01/29 02:34:50;;;;;;;2.10;1.17;;;3.80;99.90;;;;;;5011356;28;20207;-92
2022/01/29 02:37:16;;;;;;;2.00;1.10;;;3.80;99.90;;;;;;5010664;28;20183;-90
2022/01/29 02:39:42;;;;;;;4.20;1.20;;;3.70;99.90;;;;;;4994293;28;20449;-91
2022/01/29 02:42:08;;;;;;;1.30;1.20;;;3.70;99.90;;;;;;5010045;28;20715;-91
2022/01/29 02:44:34;;;;;;;2.65;1.45;;;3.70;99.90;;;;;;5010896;28;21884;-90
2022/01/29 02:47:15;;;;;;;3.83;1.60;;;3.70;99.90;;;;;;5012147;28;20180;-91
2022/01/29 02:49:41;;;;;;;2.28;1.05;;;3.60;99.90;;;;;;5014335;28;20466;-91
2022/01/29 02:52:06;;;;;;;2.53;1.70;;;3.60;99.90;;;;;;4999899;28;20179;-90
2022/01/29 02:54:34;;;;;;;1.63;1.53;;;3.60;99.90;;;;;;5016568;28;20250;-91
2022/01/29 02:57:00;;;;;;;2.13;1.10;;;3.50;99.90;;;;;;5015539;28;20187;-90
2022/01/29 02:59:26;;;;;;;1.47;1.30;;;3.50;99.90;;;;;;5010750;28;20554;-91
2022/01/29 03:01:52;;;;;;;2.40;1.50;;;3.50;99.90;;;;;;5011041;28;20410;-91
2022/01/29 03:04:17;;;;;;;1.27;1.17;;;3.50;99.90;;;;;;5010741;28;20476;-92
2022/01/29 03:06:43;;;;;;;1.80;1.30;;;3.50;99.90;;;;;;5011111;28;20259;-91
2022/01/29 03:09:09;;;;;;;1.40;1.30;;;3.50;99.90;;;;;;5010358;28;20326;-91
2022/01/29 03:11:35;;;;;;;2.70;1.30;;;3.50;99.90;;;;;;5010741;28;20412;-90
2022/01/29 03:14:01;;;;;;;2.00;1.63;;;3.40;99.90;;;;;;5011376;28;20422;-90
2022/01/29 03:16:27;;;;;;;3.10;1.43;;;3.40;99.90;;;;;;5010787;28;20408;-90
2022/01/29 03:18:52;;;;;;;5.43;1.97;;;3.40;99.90;;;;;;5010926;28;20418;-91
2022/01/29 03:21:18;;;;;;;1.47;1.20;;;3.40;99.90;;;;;;5010800;28;20227;-90
2022/01/29 03:23:45;;;;;;;2.50;1.50;;;3.40;99.90;;;;;;5010559;28;20396;-91
2022/01/29 03:26:10;;;;;;;2.70;1.60;;;3.30;99.90;;;;;;5010555;28;20203;-90
2022/01/29 03:28:36;;;;;;;1.43;1.30;;;3.30;99.90;;;;;;5021719;28;20208;-91
2022/01/29 03:31:02;;;;;;;1.60;1.30;;;3.30;99.90;;;;;;5012266;28;20431;-91
2022/01/29 03:33:29;;;;;;;2.40;1.60;;;3.30;99.90;;;;;;5000247;28;20858;-91
2022/01/29 03:35:54;;;;;;;5.18;1.40;;;3.30;99.90;;;;;;5013963;28;20434;-90
2022/01/29 03:38:20;;;;;;;6.70;2.83;;;3.30;99.90;;;;;;5009902;28;20172;-92
2022/01/29 03:44:08;;;;;;;3.65;1.50;;;3.20;99.90;;;;;;4995253;28;20668;-91
2022/01/29 03:46:34;;;;;;;1.87;1.60;;;3.20;99.90;;;;;;5010023;28;20223;-91
2022/01/29 03:49:01;;;;;;;3.93;2.00;;;3.10;99.90;;;;;;5010390;28;20815;-90
2022/01/29 03:51:27;;;;;;;4.28;1.77;;;3.10;99.90;;;;;;5010463;28;20483;-90
2022/01/29 03:53:52;;;;;;;3.97;1.50;;;3.10;99.90;;;;;;5010590;28;20188;-91
2022/01/29 03:56:19;;;;;;;1.30;1.10;;;3.00;99.90;;;;;;5013333;28;20434;-92
2022/01/29 03:58:45;;;;;;;2.40;1.73;;;3.00;99.90;;;;;;5013174;28;20263;-91
2022/01/29 04:01:10;;;;;;;4.30;1.67;;;2.90;99.90;;;;;;5013548;28;20687;-90
2022/01/29 04:03:36;;;;;;;2.87;1.63;;;2.90;99.90;;;;;;4998002;28;20176;-90
2022/01/29 04:06:02;;;;;;;2.80;1.80;;;2.90;99.90;;;;;;5013590;28;20416;-92
2022/01/29 04:08:28;;;;;;;5.73;2.40;;;2.80;99.90;;;;;;5013208;28;20456;-91
2022/01/29 04:10:54;;;;;;;2.75;1.95;;;2.80;99.90;;;;;;5013437;28;21084;-91
2022/01/29 04:13:23;;;;;;;5.55;2.38;;;2.70;99.90;;;;;;5013367;28;20183;-91
2022/01/29 04:15:49;;;;;;;4.07;1.98;;;2.70;99.90;;;;;;5013220;28;20227;-92
2022/01/29 04:18:15;;;;;;;4.57;2.22;;;2.70;99.90;;;;;;5013398;28;20225;-91
2022/01/29 04:20:41;;;;;;;3.10;2.50;;;2.70;99.90;;;;;;5013332;28;20218;-91
2022/01/29 04:23:07;;;;;;;5.73;3.57;;;2.60;99.90;;;;;;5012948;28;20400;-89
2022/01/29 04:25:33;;;;;;;7.95;2.85;;;2.60;99.90;;;;;;5013544;28;20937;-90
2022/01/29 04:28:00;;;;;;;3.40;1.90;;;2.60;99.90;;;;;;5016911;28;20184;-91
2022/01/29 04:33:00;;;;;;;3.80;2.47;;;2.60;99.90;;;;;;4999617;28;20753;-92
2022/01/29 04:35:26;;;;;;;3.35;2.03;;;2.60;99.90;;;;;;5013274;28;20211;-90
2022/01/29 04:37:52;;;;;;;4.30;1.95;;;2.60;99.90;;;;;;5012835;28;20284;-91
2022/01/29 04:40:19;;;;;;;3.83;2.13;;;2.60;99.90;;;;;;5012731;28;20228;-91
2022/01/29 04:42:45;;;;;;;2.90;1.90;;;2.60;99.90;;;;;;5012907;28;20220;-90
2022/01/29 04:45:11;;;;;;;4.68;1.90;;;2.60;99.90;;;;;;5012570;28;20207;-92
2022/01/29 04:47:37;;;;;;;4.18;2.58;;;2.60;99.90;;;;;;5012623;28;20184;-91
2022/01/29 04:50:04;;;;;;;2.07;1.87;;;2.70;99.90;;;;;;4999158;28;20242;-90
2022/01/29 04:52:30;;;;;;;7.70;2.22;;;2.70;99.90;;;;;;5017354;28;20180;-92
2022/01/29 04:54:56;;;;;;;3.03;2.30;;;2.70;99.90;;;;;;5012408;28;20208;-91
2022/01/29 04:57:21;;;;;;;2.90;1.80;;;2.80;99.90;;;;;;5013861;28;20403;-90
2022/01/29 04:59:47;;;;;;;5.60;2.20;;;2.80;99.90;;;;;;5012795;28;20606;-90
2022/01/29 05:02:13;;;;;;;2.28;1.95;;;2.80;99.90;;;;;;5012397;28;20311;-91
2022/01/29 05:04:39;;;;;;;2.37;2.10;;;2.80;99.90;;;;;;5011963;28;20696;-92
2022/01/29 05:07:05;;;;;;;4.63;1.97;;;2.80;99.90;;;;;;5013443;28;20274;-91
2022/01/29 05:09:31;;;;;;;3.60;1.90;;;2.80;99.90;;;;;;5014441;28;20578;-90
2022/01/29 05:11:59;;;;;;;2.80;2.00;;;2.90;99.90;;;;;;5018054;28;20184;-90
2022/01/29 05:14:43;;;;;;;1.95;1.77;;;2.90;99.90;;;;;;5033183;28;20195;-91
2022/01/29 05:27:54;;;;;;;2.90;2.00;;;3.00;99.90;;;;;;5014757;28;20566;-91
2022/01/29 05:30:20;;;;;;;2.27;1.90;;;3.00;99.90;;;;;;5014871;28;20227;-91
2022/01/29 05:32:46;;;;;;;5.73;1.87;;;3.00;99.90;;;;;;5019864;28;20417;-90
2022/01/29 05:35:12;;;;;;;5.00;2.10;;;2.90;99.90;;;;;;5017551;28;20452;-91
2022/01/29 05:37:37;;;;;;;2.17;1.80;;;2.90;99.90;;;;;;5013576;28;20178;-90
2022/01/29 05:40:03;;;;;;;2.23;1.87;;;2.90;99.90;;;;;;5014139;28;20422;-90
2022/01/29 05:42:29;;;;;;;3.40;2.20;;;2.90;99.90;;;;;;5014820;28;20262;-91
2022/01/29 05:44:55;;;;;;;3.60;1.93;;;2.90;99.90;;;;;;5014993;28;20239;-90
2022/01/29 05:47:21;;;;;;;3.70;2.60;;;2.90;99.90;;;;;;5014776;28;20420;-91
2022/01/29 05:49:47;;;;;;;4.60;2.03;;;2.90;99.90;;;;;;5014474;28;20971;-91
2022/01/29 05:52:12;;;;;;;2.80;2.23;;;2.90;99.90;;;;;;5014762;28;20554;-90
2022/01/29 05:54:38;;;;;;;2.87;1.93;;;2.90;99.90;;;;;;5014600;28;20452;-90
2022/01/29 05:57:04;;;;;;;6.70;3.37;;;2.90;99.90;;;;;;5014778;28;20183;-90
2022/01/29 05:59:34;;;;;;;3.65;2.47;;;2.90;99.90;;;;;;5015227;28;20432;-90
2022/01/29 06:02:00;;;;;;;4.35;2.45;;;2.90;99.90;;;;;;5022223;28;20171;-91
2022/01/29 06:04:26;;;;;;;4.50;2.90;;;2.80;99.90;;;;;;5024160;28;20238;-91
2022/01/29 06:06:52;;;;;;;3.33;2.17;;;2.80;99.90;;;;;;5018176;28;20379;-90
2022/01/29 06:09:18;;;;;;;7.67;3.57;;;2.80;99.90;;;;;;5015908;28;20928;-91
2022/01/29 06:11:44;;;;;;;7.00;2.80;;;2.70;99.90;;;;;;5014578;28;20922;-91
2022/01/29 06:14:09;;;;;;;3.35;2.30;;;2.70;99.90;;;;;;5014837;28;20722;-91
2022/01/29 06:16:35;;;;;;;3.37;2.23;;;2.70;99.90;;;;;;5014062;28;20382;-92
2022/01/29 06:19:01;;;;;;;4.87;2.40;;;2.60;99.90;;;;;;5014066;28;20186;-91
2022/01/29 06:21:27;;;;;;;4.35;2.42;;;2.60;99.90;;;;;;5014317;28;20448;-91
2022/01/29 06:23:53;;;;;;;6.97;3.53;;;2.60;99.90;;;;;;5014725;28;20180;-91
2022/01/29 06:26:19;;;;;;;10.83;4.80;;;2.60;99.90;;;;;;5014389;28;20520;-91
2022/01/29 06:28:44;;;;;;;8.57;4.70;;;2.60;99.90;;;;;;5014004;28;20510;-90
2022/01/29 06:31:10;;;;;;;9.70;6.43;;;2.60;99.90;;;;;;5014133;28;20302;-90
2022/01/29 06:33:37;;;;;;;8.37;5.10;;;2.60;99.90;;;;;;5014348;28;20711;-91
2022/01/29 06:36:03;;;;;;;10.07;4.50;;;2.60;99.90;;;;;;5013946;28;20237;-90
2022/01/29 06:38:29;;;;;;;5.93;4.30;;;2.60;99.90;;;;;;5014533;28;20522;-91
2022/01/29 06:40:55;;;;;;;8.00;4.57;;;2.60;99.90;;;;;;5014077;28;20207;-91
2022/01/29 06:43:21;;;;;;;11.85;4.93;;;2.60;99.90;;;;;;5013858;28;20202;-91
2022/01/29 06:45:47;;;;;;;8.63;4.05;;;2.50;99.90;;;;;;5014007;28;20242;-91
2022/01/29 06:48:15;;;;;;;5.70;3.20;;;2.50;99.90;;;;;;5013811;28;20266;-91
2022/01/29 06:50:41;;;;;;;5.10;3.65;;;2.50;99.90;;;;;;5014127;28;20207;-91
2022/01/29 06:53:07;;;;;;;4.05;3.10;;;2.50;99.90;;;;;;5014235;28;20182;-90
2022/01/29 06:55:33;;;;;;;5.70;3.92;;;2.50;99.90;;;;;;5013642;28;20199;-91
2022/01/29 06:57:59;;;;;;;7.73;4.80;;;2.50;99.90;;;;;;5014093;28;20523;-90
2022/01/29 07:00:25;;;;;;;4.97;3.83;;;2.50;99.90;;;;;;5026832;28;20435;-91
2022/01/29 07:02:50;;;;;;;5.30;3.70;;;2.50;99.90;;;;;;5015404;28;20175;-91
2022/01/29 07:05:16;;;;;;;4.83;3.97;;;2.50;99.90;;;;;;5013719;28;20195;-91
2022/01/29 07:07:42;;;;;;;12.20;4.50;;;2.60;99.90;;;;;;5017135;28;20395;-92
2022/01/29 07:10:09;;;;;;;11.50;5.70;;;2.60;99.90;;;;;;5021304;28;20509;-91
2022/01/29 07:12:39;;;;;;;6.53;5.30;;;2.60;99.90;;;;;;5015484;28;20908;-91
2022/01/29 07:15:07;;;;;;;5.00;4.50;;;2.60;99.90;;;;;;5021059;28;20233;-91
2022/01/29 07:17:33;;;;;;;9.88;6.68;;;2.70;99.90;;;;;;5014633;28;20193;-91
2022/01/29 07:19:58;;;;;;;15.33;9.10;;;2.70;99.90;;;;;;5013335;28;20207;-92
2022/01/29 07:22:25;;;;;;;9.80;5.50;;;2.80;99.90;;;;;;5013316;28;20425;-91
2022/01/29 07:24:51;;;;;;;7.45;4.30;;;3.10;99.90;;;;;;5013542;28;20456;-92
2022/01/29 07:27:17;;;;;;;4.20;3.42;;;3.50;99.90;;;;;;5013600;28;20167;-90
2022/01/29 07:29:43;;;;;;;5.43;3.30;;;4.00;99.90;;;;;;5015324;28;20253;-91
2022/01/29 07:32:10;;;;;;;4.80;3.17;;;4.40;99.90;;;;;;5016963;28;20384;-91
2022/01/29 07:34:36;;;;;;;8.32;4.50;;;4.70;99.90;;;;;;5035410;28;20210;-91
2022/01/29 07:37:03;;;;;;;8.55;7.00;;;4.90;99.90;;;;;;5036410;28;20634;-92
2022/01/29 07:39:29;;;;;;;6.95;4.47;;;4.90;99.90;;;;;;5019005;28;20278;-91
2022/01/29 07:41:55;;;;;;;4.60;3.50;;;4.90;99.90;;;;;;5017416;28;20210;-92
2022/01/29 07:44:22;;;;;;;5.68;3.17;;;4.90;99.90;;;;;;5016726;28;20820;-91
2022/01/29 07:46:48;;;;;;;9.63;4.05;;;4.90;99.90;;;;;;5016920;28;20176;-91
2022/01/29 07:49:14;;;;;;;4.35;3.25;;;4.90;99.90;;;;;;5016358;28;20223;-90
2022/01/29 07:51:40;;;;;;;5.38;3.85;;;4.90;99.90;;;;;;5016675;28;20245;-91
2022/01/29 07:54:06;;;;;;;8.63;4.83;;;5.00;99.90;;;;;;5016713;28;20187;-92
2022/01/29 07:56:33;;;;;;;7.63;4.25;;;5.10;99.90;;;;;;5016833;28;20436;-92
2022/01/29 07:59:02;;;;;;;3.90;3.00;;;5.50;99.90;;;;;;5030008;28;20233;-92
2022/01/29 08:01:29;;;;;;;4.20;3.00;;;6.20;99.90;;;;;;5036276;28;20324;-92
2022/01/29 08:03:55;;;;;;;4.45;3.30;;;6.90;99.90;;;;;;5023159;28;20550;-91
2022/01/29 08:06:22;;;;;;;4.47;3.25;;;7.70;99.90;;;;;;5014409;28;20195;-91
2022/01/29 08:08:48;;;;;;;7.72;4.10;;;8.50;99.90;;;;;;5016213;28;20242;-91
2022/01/29 08:11:15;;;;;;;7.22;4.13;;;9.30;99.90;;;;;;5032062;28;20226;-92
2022/01/29 08:13:41;;;;;;;5.95;3.60;;;10.10;99.70;;;;;;5026301;28;20240;-91
2022/01/29 08:16:06;;;;;;;4.93;3.40;;;10.90;97.50;;;;;;5035799;28;20234;-91
2022/01/29 08:18:35;;;;;;;6.33;4.60;;;11.50;95.50;;;;;;5035260;28;20236;-91
2022/01/29 08:21:01;;;;;;;5.35;3.25;;;12.10;94.00;;;;;;5035632;28;20429;-91
2022/01/29 08:23:27;;;;;;;4.40;3.00;;;12.70;92.20;;;;;;5027417;28;20540;-91
2022/01/29 08:25:53;;;;;;;4.78;3.40;;;13.20;90.70;;;;;;5016119;28;20459;-92
2022/01/29 08:28:19;;;;;;;4.93;3.67;;;13.70;90.70;;;;;;5015541;28;20175;-92
2022/01/29 08:30:45;;;;;;;6.53;3.20;;;14.20;87.50;;;;;;5015588;28;20961;-91
2022/01/29 08:33:17;;;;;;;9.05;3.85;;;14.60;84.50;;;;;;5015331;28;20389;-92
2022/01/29 08:35:43;;;;;;;4.53;3.07;;;15.00;83.30;;;;;;5018372;28;20644;-92
2022/01/29 08:38:09;;;;;;;7.57;3.37;;;15.30;81.10;;;;;;5021058;28;20412;-93
2022/01/29 08:40:35;;;;;;;8.20;5.17;;;15.80;80.80;;;;;;5016236;28;20452;-92
2022/01/29 08:43:01;;;;;;;8.67;4.93;;;16.20;78.30;;;;;;5017866;28;20420;-92
2022/01/29 08:45:26;;;;;;;5.43;3.70;;;16.50;76.70;;;;;;5018751;28;20290;-92
2022/01/29 08:47:54;;;;;;;10.27;5.97;;;16.80;74.80;;;;;;5020292;28;20229;-92
2022/01/29 08:50:20;;;;;;;7.80;3.97;;;17.20;73.40;;;;;;5046867;28;20454;-93
2022/01/29 08:52:46;;;;;;;4.60;2.93;;;17.40;72.90;;;;;;5031529;28;20543;-92
2022/01/29 08:55:12;;;;;;;4.27;3.00;;;17.60;71.20;;;;;;5015365;28;20440;-91
2022/01/29 08:57:38;;;;;;;6.00;3.23;;;17.40;70.40;;;;;;5015550;28;20933;-93
2022/01/29 09:00:06;;;;;;;5.70;3.33;;;17.10;70.50;;;;;;5015754;28;20861;-91
2022/01/29 09:02:35;;;;;;;5.63;2.70;;;16.70;70.50;;;;;;5014946;28;20409;-91
2022/01/29 09:05:02;;;;;;;5.63;4.13;;;16.20;70.90;;;;;;5015231;28;20461;-93
2022/01/29 09:07:28;;;;;;;5.07;3.33;;;15.90;72.10;;;;;;5015608;28;20416;-92
2022/01/29 09:09:54;;;;;;;4.67;4.10;;;15.80;72.10;;;;;;5014251;28;20594;-92
2022/01/29 09:12:20;;;;;;;5.57;3.60;;;15.60;71.20;;;;;;5014231;28;20458;-91
2022/01/29 09:14:46;;;;;;;5.00;3.40;;;15.70;71.30;;;;;;5014470;28;20551;-92
2022/01/29 09:17:13;;;;;;;4.87;3.30;;;15.80;70.50;;;;;;5013205;28;20466;-93
2022/01/29 09:19:39;;;;;;;5.47;3.13;;;15.90;71.00;;;;;;5013478;28;20507;-92
2022/01/29 09:22:05;;;;;;;7.10;3.67;;;16.00;69.90;;;;;;5013844;28;20516;-92
2022/01/29 09:24:31;;;;;;;5.40;3.70;;;16.10;69.80;;;;;;5013760;28;20427;-92
2022/01/29 09:26:59;;;;;;;6.37;3.97;;;16.10;69.40;;;;;;5013363;28;20844;-91
2022/01/29 09:29:25;;;;;;;5.43;3.03;;;16.30;69.40;;;;;;5014862;28;20484;-91
2022/01/29 09:31:51;;;;;;;5.77;3.73;;;16.40;68.60;;;;;;5012660;28;20941;-91
2022/01/29 09:34:17;;;;;;;5.73;3.43;;;16.40;67.20;;;;;;5011344;28;21249;-92
2022/01/29 09:36:43;;;;;;;4.77;4.37;;;16.40;68.50;;;;;;5010483;28;20842;-90
2022/01/29 09:39:09;;;;;;;3.67;2.70;;;16.20;67.30;;;;;;5011357;28;20194;-90
2022/01/29 09:41:37;;;;;;;4.50;3.03;;;16.20;68.70;;;;;;5012638;28;20676;-91
2022/01/29 09:44:04;;;;;;;3.60;2.83;;;16.40;68.10;;;;;;5020997;28;20441;-92
2022/01/29 09:46:31;;;;;;;3.50;3.03;;;16.50;67.60;;;;;;5030554;28;20491;-92
2022/01/29 09:48:56;;;;;;;5.60;2.60;;;16.30;66.30;;;;;;5023042;28;20471;-92
2022/01/29 09:51:23;;;;;;;5.50;3.30;;;16.00;66.20;;;;;;5014096;28;20511;-92
2022/01/29 09:53:49;;;;;;;45.43;27.93;;;15.80;66.90;;;;;;5015812;28;20234;-91
2022/01/29 09:56:16;;;;;;;9.27;4.83;;;15.50;67.20;;;;;;5014962;28;20925;-92
2022/01/29 09:58:42;;;;;;;4.97;3.50;;;15.60;67.30;;;;;;5014657;28;20421;-92
2022/01/29 10:01:09;;;;;;;9.60;7.17;;;15.60;66.10;;;;;;5014615;28;20456;-90
2022/01/29 10:03:35;;;;;;;6.67;4.60;;;15.70;67.00;;;;;;5014563;28;20420;-92
2022/01/29 10:06:03;;;;;;;4.80;3.90;;;15.90;66.50;;;;;;5010328;28;20986;-91
2022/01/29 10:08:41;;;;;;;4.27;3.07;;;16.00;65.70;;;;;;5008378;28;20488;-92
2022/01/29 10:11:23;;;;;;;4.40;2.93;;;15.90;65.50;;;;;;5014367;28;20800;-92
2022/01/29 10:13:49;;;;;;;3.20;2.67;;;15.80;65.00;;;;;;5013913;28;20431;-92
2022/01/29 10:16:18;;;;;;;4.33;3.27;;;15.70;65.70;;;;;;5013549;28;20437;-90
2022/01/29 10:18:47;;;;;;;3.37;3.00;;;15.40;65.30;;;;;;5014216;28;20422;-91
2022/01/29 10:21:21;;;;;;;2.47;2.27;;;15.20;66.00;;;;;;5014255;28;21067;-92
2022/01/29 10:23:47;;;;;;;3.13;2.30;;;14.90;66.30;;;;;;5014215;28;20420;-92
2022/01/29 10:26:33;;;;;;;4.03;3.50;;;14.70;67.10;;;;;;5013683;28;20826;-91
2022/01/29 10:29:00;;;;;;;4.40;2.83;;;14.30;67.40;;;;;;5014765;28;20435;-92
2022/01/29 10:31:39;;;;;;;7.07;4.80;;;13.90;67.80;;;;;;5013864;28;20490;-92
2022/01/29 10:34:18;;;;;;;10.83;8.23;;;13.40;68.80;;;;;;5014589;28;20761;-91
2022/01/29 10:36:45;;;;;;;4.70;3.90;;;13.20;69.10;;;;;;5013923;28;20397;-92
2022/01/29 10:39:11;;;;;;;4.07;2.83;;;13.00;70.70;;;;;;5013998;28;20460;-92
2022/01/29 10:41:37;;;;;;;4.67;4.03;;;12.90;70.40;;;;;;5013371;28;20654;-91
2022/01/29 10:44:15;;;;;;;6.10;3.33;;;12.60;69.80;;;;;;5014425;28;20420;-91
2022/01/29 10:46:50;;;;;;;3.00;2.70;;;12.30;70.80;;;;;;5023063;28;20175;-92
2022/01/29 10:49:31;;;;;;;2.40;2.20;;;12.00;71.20;;;;;;5014412;28;20233;-92
2022/01/29 10:52:02;;;;;;;5.43;3.60;;;11.90;72.10;;;;;;5014292;28;20736;-92
2022/01/29 10:54:30;;;;;;;3.42;2.35;;;11.90;71.60;;;;;;5013916;28;20779;-92
2022/01/29 10:56:59;;;;;;;2.60;2.20;;;11.40;71.30;;;;;;5014225;28;20269;-91
2022/01/29 10:59:26;;;;;;;15.55;9.50;;;10.80;72.40;;;;;;5030351;28;20183;-91
2022/01/29 11:01:56;;;;;;;27.33;13.52;;;10.50;73.50;;;;;;5013992;28;20174;-91
2022/01/29 11:04:25;;;;;;;27.88;13.40;;;10.40;74.30;;;;;;5016383;28;20212;-91
2022/01/29 11:06:52;;;;;;;11.23;5.95;;;10.10;74.10;;;;;;5017472;28;20175;-91
2022/01/29 11:09:18;;;;;;;4.45;3.58;;;10.10;74.50;;;;;;5017579;28;20305;-91
2022/01/29 11:11:45;;;;;;;3.50;3.00;;;10.10;75.30;;;;;;5018647;28;20178;-91
2022/01/29 11:14:17;;;;;;;6.10;3.38;;;10.10;74.90;;;;;;5017575;28;20233;-91
2022/01/29 11:16:44;;;;;;;6.50;4.20;;;10.20;75.90;;;;;;5017715;28;20179;-91
2022/01/29 11:19:11;;;;;;;6.45;3.10;;;10.20;75.60;;;;;;5017465;28;20190;-91
2022/01/29 11:21:37;;;;;;;4.85;2.50;;;10.10;75.50;;;;;;5017648;28;20202;-90
2022/01/29 11:24:06;;;;;;;3.63;2.35;;;10.00;74.90;;;;;;5017208;28;20186;-91
2022/01/29 11:26:33;;;;;;;2.40;2.17;;;10.00;74.70;;;;;;5017319;28;20277;-91
2022/01/29 11:29:26;;;;;;;4.78;2.40;;;9.90;74.90;;;;;;5016624;28;20215;-91
2022/01/29 11:32:21;;;;;;;5.30;2.70;;;9.80;75.10;;;;;;5012335;28;20191;-90
2022/01/29 11:35:07;;;;;;;5.30;2.67;;;9.80;76.00;;;;;;5017012;28;20326;-92
2022/01/29 11:37:42;;;;;;;4.80;2.65;;;9.70;76.80;;;;;;5017008;28;20198;-91
2022/01/29 11:40:26;;;;;;;4.93;2.60;;;9.70;75.80;;;;;;5017450;28;20210;-92
2022/01/29 11:42:58;;;;;;;5.00;4.10;;;9.60;76.50;;;;;;5016873;28;20648;-91
2022/01/29 11:45:43;;;;;;;6.18;3.30;;;9.50;76.60;;;;;;5016463;28;20203;-92
2022/01/29 11:48:28;;;;;;;4.78;2.70;;;9.40;77.40;;;;;;5015435;28;20206;-91
2022/01/29 11:51:07;;;;;;;3.60;2.80;;;9.40;77.70;;;;;;5020343;28;20651;-92
2022/01/29 11:53:45;;;;;;;4.53;3.58;;;9.40;78.50;;;;;;5021137;28;20258;-91
2022/01/29 11:56:32;;;;;;;8.85;4.80;;;9.40;78.00;;;;;;5022342;28;20644;-91
2022/01/29 11:59:17;;;;;;;6.57;4.85;;;9.40;78.20;;;;;;5015520;28;20207;-91
2022/01/29 12:01:44;;;;;;;4.78;3.00;;;9.40;79.20;;;;;;5015379;28;20183;-92
2022/01/29 12:04:10;;;;;;;3.20;2.90;;;9.40;78.50;;;;;;5014991;28;20180;-91
2022/01/29 12:06:42;;;;;;;2.92;2.70;;;9.40;78.60;;;;;;5014846;28;20627;-91
2022/01/29 12:09:21;;;;;;;4.63;3.85;;;9.40;78.10;;;;;;5014533;28;20692;-91
2022/01/29 12:12:12;;;;;;;3.38;2.60;;;9.30;78.60;;;;;;5014671;28;20644;-91
2022/01/29 12:14:38;;;;;;;4.28;3.75;;;9.30;78.30;;;;;;5015078;28;20254;-92
2022/01/29 12:17:05;;;;;;;4.20;2.80;;;9.30;78.40;;;;;;5021245;28;20179;-92
2022/01/29 12:19:43;;;;;;;5.28;3.80;;;9.30;77.90;;;;;;5027787;28;20391;-92
2022/01/29 12:22:13;;;;;;;3.67;2.50;;;9.30;78.80;;;;;;5028657;28;20535;-91
2022/01/29 12:24:49;;;;;;;5.82;3.90;;;9.30;77.60;;;;;;5016002;28;20195;-91
2022/01/29 12:27:15;;;;;;;3.60;2.72;;;9.30;77.30;;;;;;5016243;28;20253;-92
2022/01/29 12:29:41;;;;;;;5.43;4.70;;;9.20;77.60;;;;;;5015677;28;20230;-91
2022/01/29 12:32:09;;;;;;;5.90;4.53;;;9.20;77.50;;;;;;5001410;28;20663;-91
2022/01/29 12:34:35;;;;;;;10.20;6.30;;;9.20;78.30;;;;;;5016984;28;20566;-91
2022/01/29 12:37:15;;;;;;;3.63;2.80;;;9.30;78.80;;;;;;5015880;28;20187;-91
2022/01/29 12:39:43;;;;;;;3.67;2.38;;;9.30;77.60;;;;;;5012539;28;20286;-92
2022/01/29 12:44:54;;;;;;;4.38;3.95;;;9.20;77.80;;;;;;4997044;28;20259;-91
2022/01/29 12:47:30;;;;;;;6.07;4.65;;;9.20;77.60;;;;;;4997168;28;20622;-91
2022/01/29 12:49:56;;;;;;;4.50;3.40;;;9.10;78.20;;;;;;4995799;28;20310;-90
2022/01/29 12:52:23;;;;;;;2.53;2.30;;;9.00;78.00;;;;;;4996419;28;20658;-92
2022/01/29 12:54:54;;;;;;;4.40;2.78;;;9.00;78.90;;;;;;4996474;28;20729;-92
2022/01/29 12:57:21;;;;;;;3.08;2.65;;;9.00;79.30;;;;;;4996435;28;20191;-92
2022/01/29 12:59:47;;;;;;;6.65;3.00;;;9.00;79.70;;;;;;4996296;28;20210;-91
2022/01/29 13:02:13;;;;;;;5.80;3.20;;;9.00;79.30;;;;;;4995935;28;20176;-91
2022/01/29 13:04:39;;;;;;;30.17;12.80;;;9.10;79.00;;;;;;4996152;28;20196;-91
2022/01/29 13:07:07;;;;;;;15.23;10.50;;;9.10;79.70;;;;;;4999964;28;20422;-91
2022/01/29 13:09:36;;;;;;;5.40;4.25;;;9.00;79.70;;;;;;4998771;28;20236;-91
2022/01/29 13:12:12;;;;;;;4.30;3.20;;;9.00;78.80;;;;;;5010104;28;20180;-91
2022/01/29 13:14:38;;;;;;;4.40;3.53;;;8.80;79.20;;;;;;4997819;28;20195;-91
2022/01/29 13:17:09;;;;;;;7.15;5.18;;;8.70;79.70;;;;;;4993876;28;20198;-92